sensor_id;sensor_type;location;lat;lon;timestamp;P1;durP1;ratioP1;P2;durP2;ratioP2
20962;SDS011;10640;50.140;8.138;2022-08-21T02:52:09;7.80;;;3.87;;
20962;SDS011;10640;50.140;8.138;2022-08-21T02:54:37;6.90;;;3.47;;
20962;SDS011;10640;50.140;8.138;2022-08-21T02:57:04;9.37;;;3.87;;
20962;SDS011;10640;50.140;8.138;2022-08-21T02:59:31;6.83;;;3.73;;
20962;SDS011;10640;50.140;8.138;2022-08-21T03:01:59;5.07;;;3.57;;
20962;SDS011;10640;50.140;8.138;2022-08-21T03:04:26;8.93;;;4.23;;
20962;SDS011;10640;50.140;8.138;2022-08-21T03:10:32;11.90;;;3.90;;
20962;SDS011;10640;50.140;8.138;2022-08-21T03:13:36;7.60;;;3.57;;
20962;SDS011;10640;50.140;8.138;2022-08-21T03:16:08;7.63;;;3.77;;
20962;SDS011;10640;50.140;8.138;2022-08-21T03:18:35;7.27;;;3.50;;
20962;SDS011;10640;50.140;8.138;2022-08-21T03:21:04;7.47;;;4.13;;
20962;SDS011;10640;50.140;8.138;2022-08-21T03:23:46;7.23;;;3.90;;
20962;SDS011;10640;50.140;8.138;2022-08-21T03:26:15;8.13;;;3.83;;
20962;SDS011;10640;50.140;8.138;2022-08-21T03:28:42;6.33;;;4.10;;
20962;SDS011;10640;50.140;8.138;2022-08-21T03:31:11;8.63;;;3.97;;
20962;SDS011;10640;50.140;8.138;2022-08-21T03:34:03;10.63;;;4.40;;
20962;SDS011;10640;50.140;8.138;2022-08-21T03:36:44;7.83;;;4.13;;
20962;SDS011;10640;50.140;8.138;2022-08-21T03:39:11;5.73;;;3.63;;
20962;SDS011;10640;50.140;8.138;2022-08-21T03:45:09;8.07;;;4.10;;
20962;SDS011;10640;50.140;8.138;2022-08-21T03:50:42;9.67;;;3.87;;
20962;SDS011;10640;50.140;8.138;2022-08-21T03:53:12;8.27;;;4.03;;
20962;SDS011;10640;50.140;8.138;2022-08-21T03:55:41;5.50;;;3.57;;
20962;SDS011;10640;50.140;8.138;2022-08-21T03:58:08;9.23;;;4.23;;
20962;SDS011;10640;50.140;8.138;2022-08-21T04:00:36;8.83;;;3.50;;
20962;SDS011;10640;50.140;8.138;2022-08-21T04:03:04;5.57;;;4.20;;
20962;SDS011;10640;50.140;8.138;2022-08-21T04:05:31;5.03;;;3.53;;
20962;SDS011;10640;50.140;8.138;2022-08-21T04:07:59;10.10;;;4.70;;
20962;SDS011;10640;50.140;8.138;2022-08-21T04:10:28;8.13;;;3.90;;
20962;SDS011;10640;50.140;8.138;2022-08-21T04:12:57;7.23;;;3.97;;
20962;SDS011;10640;50.140;8.138;2022-08-21T04:15:24;10.63;;;4.13;;
20962;SDS011;10640;50.140;8.138;2022-08-21T04:17:55;6.07;;;3.67;;
20962;SDS011;10640;50.140;8.138;2022-08-21T04:20:22;7.07;;;4.23;;
20962;SDS011;10640;50.140;8.138;2022-08-21T04:22:50;8.97;;;4.07;;
20962;SDS011;10640;50.140;8.138;2022-08-21T04:25:18;7.63;;;3.83;;
20962;SDS011;10640;50.140;8.138;2022-08-21T04:27:47;7.47;;;3.73;;
20962;SDS011;10640;50.140;8.138;2022-08-21T04:30:14;7.33;;;3.93;;
20962;SDS011;10640;50.140;8.138;2022-08-21T04:32:42;12.37;;;4.40;;
20962;SDS011;10640;50.140;8.138;2022-08-21T04:35:16;6.50;;;4.00;;
20962;SDS011;10640;50.140;8.138;2022-08-21T04:38:00;7.60;;;4.03;;
20962;SDS011;10640;50.140;8.138;2022-08-21T04:40:28;9.50;;;4.43;;
20962;SDS011;10640;50.140;8.138;2022-08-21T04:43:07;7.70;;;4.03;;
20962;SDS011;10640;50.140;8.138;2022-08-21T04:45:36;10.80;;;4.53;;
20962;SDS011;10640;50.140;8.138;2022-08-21T04:48:06;6.90;;;4.13;;
20962;SDS011;10640;50.140;8.138;2022-08-21T04:51:13;7.40;;;4.13;;
20962;SDS011;10640;50.140;8.138;2022-08-21T04:53:59;9.57;;;4.57;;
20962;SDS011;10640;50.140;8.138;2022-08-21T04:56:40;8.23;;;4.07;;
20962;SDS011;10640;50.140;8.138;2022-08-21T04:59:11;8.23;;;4.00;;
20962;SDS011;10640;50.140;8.138;2022-08-21T05:01:42;8.33;;;4.57;;
20962;SDS011;10640;50.140;8.138;2022-08-21T05:07:01;5.00;;;4.20;;
20962;SDS011;10640;50.140;8.138;2022-08-21T05:09:32;8.90;;;4.00;;
20962;SDS011;10640;50.140;8.138;2022-08-21T05:12:00;9.83;;;4.07;;
20962;SDS011;10640;50.140;8.138;2022-08-21T05:14:28;7.13;;;4.00;;
20962;SDS011;10640;50.140;8.138;2022-08-21T05:16:55;7.60;;;4.00;;
20962;SDS011;10640;50.140;8.138;2022-08-21T05:19:23;9.40;;;4.40;;
20962;SDS011;10640;50.140;8.138;2022-08-21T05:21:51;5.37;;;3.67;;
20962;SDS011;10640;50.140;8.138;2022-08-21T05:24:20;9.87;;;4.10;;
20962;SDS011;10640;50.140;8.138;2022-08-21T05:26:48;8.93;;;4.03;;
20962;SDS011;10640;50.140;8.138;2022-08-21T05:29:15;7.87;;;3.77;;
20962;SDS011;10640;50.140;8.138;2022-08-21T05:31:42;10.47;;;4.07;;
20962;SDS011;10640;50.140;8.138;2022-08-21T05:34:10;9.67;;;4.27;;
20962;SDS011;10640;50.140;8.138;2022-08-21T05:36:37;7.30;;;4.10;;
20962;SDS011;10640;50.140;8.138;2022-08-21T05:39:07;6.17;;;4.20;;
20962;SDS011;10640;50.140;8.138;2022-08-21T05:41:35;7.97;;;4.20;;
20962;SDS011;10640;50.140;8.138;2022-08-21T05:44:03;6.70;;;4.03;;
20962;SDS011;10640;50.140;8.138;2022-08-21T05:46:29;7.43;;;4.20;;
20962;SDS011;10640;50.140;8.138;2022-08-21T05:48:56;7.87;;;4.00;;
20962;SDS011;10640;50.140;8.138;2022-08-21T05:51:23;4.73;;;3.90;;
20962;SDS011;10640;50.140;8.138;2022-08-21T05:53:50;8.67;;;4.70;;
20962;SDS011;10640;50.140;8.138;2022-08-21T05:56:18;17.00;;;4.90;;
20962;SDS011;10640;50.140;8.138;2022-08-21T05:58:52;11.57;;;4.30;;
20962;SDS011;10640;50.140;8.138;2022-08-21T06:01:20;8.93;;;4.60;;
20962;SDS011;10640;50.140;8.138;2022-08-21T06:03:48;8.07;;;4.80;;
20962;SDS011;10640;50.140;8.138;2022-08-21T06:06:18;8.63;;;4.43;;
20962;SDS011;10640;50.140;8.138;2022-08-21T06:08:45;9.73;;;4.63;;
20962;SDS011;10640;50.140;8.138;2022-08-21T06:11:12;8.00;;;4.43;;
20962;SDS011;10640;50.140;8.138;2022-08-21T06:13:39;8.33;;;4.30;;
20962;SDS011;10640;50.140;8.138;2022-08-21T06:16:10;7.97;;;3.83;;
20962;SDS011;10640;50.140;8.138;2022-08-21T06:18:39;9.63;;;4.77;;
20962;SDS011;10640;50.140;8.138;2022-08-21T06:21:07;7.57;;;3.90;;
20962;SDS011;10640;50.140;8.138;2022-08-21T06:23:36;6.27;;;3.90;;
20962;SDS011;10640;50.140;8.138;2022-08-21T06:26:04;8.40;;;4.67;;
20962;SDS011;10640;50.140;8.138;2022-08-21T06:28:32;6.97;;;3.90;;
20962;SDS011;10640;50.140;8.138;2022-08-21T06:31:00;6.67;;;4.30;;
20962;SDS011;10640;50.140;8.138;2022-08-21T06:33:28;8.40;;;4.27;;
20962;SDS011;10640;50.140;8.138;2022-08-21T06:35:58;6.43;;;4.20;;
20962;SDS011;10640;50.140;8.138;2022-08-21T06:38:25;7.20;;;4.20;;
20962;SDS011;10640;50.140;8.138;2022-08-21T06:40:52;6.87;;;3.70;;
20962;SDS011;10640;50.140;8.138;2022-08-21T06:43:19;5.83;;;3.90;;
20962;SDS011;10640;50.140;8.138;2022-08-21T06:45:46;8.43;;;4.10;;
20962;SDS011;10640;50.140;8.138;2022-08-21T06:48:13;7.53;;;3.90;;
20962;SDS011;10640;50.140;8.138;2022-08-21T06:50:42;10.33;;;4.60;;
20962;SDS011;10640;50.140;8.138;2022-08-21T06:53:10;8.50;;;3.87;;
20962;SDS011;10640;50.140;8.138;2022-08-21T06:55:39;7.43;;;3.90;;
20962;SDS011;10640;50.140;8.138;2022-08-21T06:58:07;6.73;;;3.90;;
20962;SDS011;10640;50.140;8.138;2022-08-21T07:00:35;6.17;;;3.67;;
20962;SDS011;10640;50.140;8.138;2022-08-21T07:03:04;7.47;;;4.10;;
20962;SDS011;10640;50.140;8.138;2022-08-21T07:05:31;8.20;;;3.97;;
20962;SDS011;10640;50.140;8.138;2022-08-21T07:08:00;9.83;;;3.83;;
20962;SDS011;10640;50.140;8.138;2022-08-21T07:10:27;9.93;;;3.90;;
20962;SDS011;10640;50.140;8.138;2022-08-21T07:12:54;9.50;;;4.23;;
20962;SDS011;10640;50.140;8.138;2022-08-21T07:15:21;7.33;;;4.03;;
20962;SDS011;10640;50.140;8.138;2022-08-21T07:17:48;6.97;;;3.87;;
20962;SDS011;10640;50.140;8.138;2022-08-21T07:20:17;10.90;;;4.50;;
20962;SDS011;10640;50.140;8.138;2022-08-21T07:22:46;9.23;;;4.27;;
20962;SDS011;10640;50.140;8.138;2022-08-21T07:25:14;8.00;;;4.70;;
20962;SDS011;10640;50.140;8.138;2022-08-21T07:27:41;8.00;;;4.50;;
20962;SDS011;10640;50.140;8.138;2022-08-21T07:30:09;11.37;;;5.13;;
20962;SDS011;10640;50.140;8.138;2022-08-21T07:32:36;12.17;;;5.30;;
20962;SDS011;10640;50.140;8.138;2022-08-21T07:35:03;12.43;;;5.00;;
20962;SDS011;10640;50.140;8.138;2022-08-21T07:37:31;6.70;;;4.70;;
20962;SDS011;10640;50.140;8.138;2022-08-21T07:41:06;6.57;;;4.53;;
20962;SDS011;10640;50.140;8.138;2022-08-21T07:44:04;11.57;;;5.00;;
20962;SDS011;10640;50.140;8.138;2022-08-21T07:46:36;13.33;;;5.17;;
20962;SDS011;10640;50.140;8.138;2022-08-21T07:49:03;8.93;;;4.77;;
20962;SDS011;10640;50.140;8.138;2022-08-21T07:54:53;11.90;;;5.20;;
20962;SDS011;10640;50.140;8.138;2022-08-21T07:57:21;12.97;;;5.37;;
20962;SDS011;10640;50.140;8.138;2022-08-21T07:59:48;8.60;;;5.20;;
20962;SDS011;10640;50.140;8.138;2022-08-21T08:02:26;7.27;;;4.80;;
20962;SDS011;10640;50.140;8.138;2022-08-21T08:04:58;7.33;;;4.10;;
20962;SDS011;10640;50.140;8.138;2022-08-21T08:07:29;10.73;;;4.70;;
20962;SDS011;10640;50.140;8.138;2022-08-21T08:09:56;11.43;;;4.13;;
20962;SDS011;10640;50.140;8.138;2022-08-21T08:12:25;13.23;;;4.40;;
20962;SDS011;10640;50.140;8.138;2022-08-21T08:14:54;11.87;;;3.93;;
20962;SDS011;10640;50.140;8.138;2022-08-21T08:17:22;8.48;;;3.88;;
20962;SDS011;10640;50.140;8.138;2022-08-21T08:19:49;11.93;;;3.60;;
20962;SDS011;10640;50.140;8.138;2022-08-21T08:22:17;8.38;;;3.20;;
20962;SDS011;10640;50.140;8.138;2022-08-21T08:24:49;9.90;;;3.60;;
20962;SDS011;10640;50.140;8.138;2022-08-21T08:27:17;6.80;;;3.45;;
20962;SDS011;10640;50.140;8.138;2022-08-21T08:29:46;7.47;;;3.15;;
20962;SDS011;10640;50.140;8.138;2022-08-21T08:32:17;12.60;;;3.63;;
20962;SDS011;10640;50.140;8.138;2022-08-21T08:34:46;11.80;;;2.85;;
20962;SDS011;10640;50.140;8.138;2022-08-21T08:37:16;6.38;;;2.90;;
20962;SDS011;10640;50.140;8.138;2022-08-21T08:39:44;6.00;;;3.25;;
20962;SDS011;10640;50.140;8.138;2022-08-21T08:42:12;9.05;;;3.10;;
20962;SDS011;10640;50.140;8.138;2022-08-21T08:44:44;8.65;;;3.00;;
20962;SDS011;10640;50.140;8.138;2022-08-21T08:47:31;9.23;;;3.97;;
20962;SDS011;10640;50.140;8.138;2022-08-21T08:53:52;11.85;;;3.45;;
20962;SDS011;10640;50.140;8.138;2022-08-21T08:56:27;5.60;;;2.90;;
20962;SDS011;10640;50.140;8.138;2022-08-21T08:58:56;7.05;;;2.67;;
20962;SDS011;10640;50.140;8.138;2022-08-21T09:01:30;8.75;;;2.65;;
20962;SDS011;10640;50.140;8.138;2022-08-21T09:03:57;8.57;;;2.72;;
20962;SDS011;10640;50.140;8.138;2022-08-21T09:06:28;9.25;;;3.13;;
20962;SDS011;10640;50.140;8.138;2022-08-21T09:09:07;7.40;;;2.78;;
20962;SDS011;10640;50.140;8.138;2022-08-21T09:11:48;6.82;;;3.30;;
20962;SDS011;10640;50.140;8.138;2022-08-21T09:14:28;8.13;;;3.78;;
20962;SDS011;10640;50.140;8.138;2022-08-21T09:17:13;10.00;;;3.20;;
20962;SDS011;10640;50.140;8.138;2022-08-21T09:19:53;7.63;;;3.40;;
20962;SDS011;10640;50.140;8.138;2022-08-21T09:22:35;5.80;;;3.20;;
20962;SDS011;10640;50.140;8.138;2022-08-21T09:25:08;8.73;;;2.93;;
20962;SDS011;10640;50.140;8.138;2022-08-21T09:27:41;6.23;;;2.57;;
20962;SDS011;10640;50.140;8.138;2022-08-21T09:30:09;6.97;;;2.73;;
20962;SDS011;10640;50.140;8.138;2022-08-21T09:32:38;7.53;;;2.50;;
20962;SDS011;10640;50.140;8.138;2022-08-21T09:35:07;6.33;;;2.40;;
20962;SDS011;10640;50.140;8.138;2022-08-21T09:37:45;7.70;;;2.40;;
20962;SDS011;10640;50.140;8.138;2022-08-21T09:40:20;6.80;;;2.80;;
20962;SDS011;10640;50.140;8.138;2022-08-21T09:43:00;6.78;;;2.47;;
20962;SDS011;10640;50.140;8.138;2022-08-21T09:45:28;5.68;;;2.67;;
20962;SDS011;10640;50.140;8.138;2022-08-21T09:48:07;10.02;;;2.63;;
20962;SDS011;10640;50.140;8.138;2022-08-21T09:50:39;5.60;;;2.47;;
20962;SDS011;10640;50.140;8.138;2022-08-21T09:53:15;6.55;;;2.13;;
20962;SDS011;10640;50.140;8.138;2022-08-21T09:55:48;5.97;;;2.72;;
20962;SDS011;10640;50.140;8.138;2022-08-21T09:58:35;5.15;;;2.33;;
20962;SDS011;10640;50.140;8.138;2022-08-21T10:01:05;3.88;;;2.05;;
20962;SDS011;10640;50.140;8.138;2022-08-21T10:03:34;6.82;;;2.53;;
20962;SDS011;10640;50.140;8.138;2022-08-21T10:06:05;12.55;;;2.90;;
20962;SDS011;10640;50.140;8.138;2022-08-21T10:08:36;6.20;;;2.30;;
20962;SDS011;10640;50.140;8.138;2022-08-21T10:11:05;6.23;;;2.20;;
20962;SDS011;10640;50.140;8.138;2022-08-21T10:13:39;7.40;;;2.47;;
20962;SDS011;10640;50.140;8.138;2022-08-21T10:26:41;5.60;;;2.20;;
20962;SDS011;10640;50.140;8.138;2022-08-21T10:29:42;3.87;;;2.03;;
20962;SDS011;10640;50.140;8.138;2022-08-21T10:32:29;5.57;;;2.45;;
20962;SDS011;10640;50.140;8.138;2022-08-21T10:35:09;4.85;;;2.10;;
20962;SDS011;10640;50.140;8.138;2022-08-21T10:37:44;4.43;;;2.10;;
20962;SDS011;10640;50.140;8.138;2022-08-21T10:40:23;6.35;;;2.53;;
20962;SDS011;10640;50.140;8.138;2022-08-21T10:43:26;4.97;;;2.30;;
20962;SDS011;10640;50.140;8.138;2022-08-21T10:46:02;5.55;;;2.30;;
20962;SDS011;10640;50.140;8.138;2022-08-21T10:48:41;5.47;;;2.28;;
20962;SDS011;10640;50.140;8.138;2022-08-21T10:51:16;4.05;;;2.22;;
20962;SDS011;10640;50.140;8.138;2022-08-21T10:53:55;7.03;;;2.00;;
20962;SDS011;10640;50.140;8.138;2022-08-21T10:56:28;3.50;;;1.98;;
20962;SDS011;10640;50.140;8.138;2022-08-21T10:59:04;2.63;;;1.60;;
20962;SDS011;10640;50.140;8.138;2022-08-21T11:01:44;7.03;;;2.40;;
20962;SDS011;10640;50.140;8.138;2022-08-21T11:04:18;3.00;;;1.80;;
20962;SDS011;10640;50.140;8.138;2022-08-21T11:06:51;4.85;;;1.85;;
20962;SDS011;10640;50.140;8.138;2022-08-21T11:09:25;4.90;;;2.03;;
20962;SDS011;10640;50.140;8.138;2022-08-21T11:12:10;6.32;;;2.15;;
20962;SDS011;10640;50.140;8.138;2022-08-21T11:14:49;4.63;;;2.75;;
20962;SDS011;10640;50.140;8.138;2022-08-21T11:17:24;3.60;;;1.80;;
20962;SDS011;10640;50.140;8.138;2022-08-21T11:19:59;2.53;;;2.33;;
20962;SDS011;10640;50.140;8.138;2022-08-21T11:22:33;3.72;;;1.80;;
20962;SDS011;10640;50.140;8.138;2022-08-21T11:25:07;3.40;;;1.50;;
20962;SDS011;10640;50.140;8.138;2022-08-21T11:27:42;2.95;;;1.63;;
20962;SDS011;10640;50.140;8.138;2022-08-21T11:30:14;3.55;;;1.70;;
20962;SDS011;10640;50.140;8.138;2022-08-21T11:32:52;1.90;;;1.50;;
20962;SDS011;10640;50.140;8.138;2022-08-21T11:35:32;3.45;;;1.65;;
20962;SDS011;10640;50.140;8.138;2022-08-21T11:38:09;2.22;;;1.50;;
20962;SDS011;10640;50.140;8.138;2022-08-21T11:40:52;5.28;;;1.80;;
20962;SDS011;10640;50.140;8.138;2022-08-21T11:43:31;1.98;;;1.38;;
20962;SDS011;10640;50.140;8.138;2022-08-21T11:46:10;2.22;;;1.58;;
20962;SDS011;10640;50.140;8.138;2022-08-21T11:48:46;2.75;;;1.70;;
20962;SDS011;10640;50.140;8.138;2022-08-21T11:51:20;1.70;;;1.50;;
20962;SDS011;10640;50.140;8.138;2022-08-21T11:53:51;2.90;;;1.52;;
20962;SDS011;10640;50.140;8.138;2022-08-21T11:56:27;5.28;;;1.30;;
20962;SDS011;10640;50.140;8.138;2022-08-21T11:58:59;5.03;;;1.45;;
20962;SDS011;10640;50.140;8.138;2022-08-21T12:01:32;5.07;;;2.17;;
20962;SDS011;10640;50.140;8.138;2022-08-21T12:04:03;3.08;;;1.58;;
20962;SDS011;10640;50.140;8.138;2022-08-21T12:06:39;3.33;;;1.40;;
20962;SDS011;10640;50.140;8.138;2022-08-21T12:09:08;1.63;;;1.50;;
20962;SDS011;10640;50.140;8.138;2022-08-21T12:11:45;2.10;;;1.45;;
20962;SDS011;10640;50.140;8.138;2022-08-21T12:14:14;2.60;;;1.30;;
20962;SDS011;10640;50.140;8.138;2022-08-21T12:16:45;2.28;;;1.45;;
20962;SDS011;10640;50.140;8.138;2022-08-21T12:19:27;3.42;;;1.60;;
20962;SDS011;10640;50.140;8.138;2022-08-21T12:21:58;2.65;;;1.50;;
20962;SDS011;10640;50.140;8.138;2022-08-21T12:24:35;2.42;;;1.60;;
20962;SDS011;10640;50.140;8.138;2022-08-21T12:27:13;2.70;;;1.50;;
20962;SDS011;10640;50.140;8.138;2022-08-21T12:29:51;2.00;;;1.73;;
20962;SDS011;10640;50.140;8.138;2022-08-21T12:32:27;2.38;;;1.50;;
20962;SDS011;10640;50.140;8.138;2022-08-21T12:34:56;3.28;;;1.77;;
20962;SDS011;10640;50.140;8.138;2022-08-21T12:37:30;3.92;;;1.70;;
20962;SDS011;10640;50.140;8.138;2022-08-21T12:40:09;3.33;;;1.88;;
20962;SDS011;10640;50.140;8.138;2022-08-21T12:42:41;2.95;;;1.70;;
20962;SDS011;10640;50.140;8.138;2022-08-21T12:45:13;5.65;;;1.50;;
20962;SDS011;10640;50.140;8.138;2022-08-21T12:47:47;2.55;;;1.63;;
20962;SDS011;10640;50.140;8.138;2022-08-21T12:50:19;4.35;;;1.75;;
20962;SDS011;10640;50.140;8.138;2022-08-21T12:52:53;4.15;;;1.40;;
20962;SDS011;10640;50.140;8.138;2022-08-21T12:55:26;3.97;;;1.70;;
20962;SDS011;10640;50.140;8.138;2022-08-21T12:57:54;2.40;;;1.70;;
20962;SDS011;10640;50.140;8.138;2022-08-21T13:00:22;1.73;;;1.50;;
20962;SDS011;10640;50.140;8.138;2022-08-21T13:02:53;3.45;;;1.70;;
20962;SDS011;10640;50.140;8.138;2022-08-21T13:05:24;2.38;;;1.40;;
20962;SDS011;10640;50.140;8.138;2022-08-21T13:07:55;5.65;;;2.00;;
20962;SDS011;10640;50.140;8.138;2022-08-21T13:10:23;5.55;;;1.83;;
20962;SDS011;10640;50.140;8.138;2022-08-21T13:12:53;1.48;;;1.38;;
20962;SDS011;10640;50.140;8.138;2022-08-21T13:15:22;2.70;;;1.75;;
20962;SDS011;10640;50.140;8.138;2022-08-21T13:17:54;1.50;;;1.38;;
20962;SDS011;10640;50.140;8.138;2022-08-21T13:20:28;3.75;;;1.95;;
20962;SDS011;10640;50.140;8.138;2022-08-21T13:22:56;1.90;;;1.60;;
20962;SDS011;10640;50.140;8.138;2022-08-21T13:25:25;1.70;;;1.60;;
20962;SDS011;10640;50.140;8.138;2022-08-21T13:27:59;3.97;;;1.85;;
20962;SDS011;10640;50.140;8.138;2022-08-21T13:30:27;2.95;;;1.58;;
20962;SDS011;10640;50.140;8.138;2022-08-21T13:32:57;1.83;;;1.45;;
20962;SDS011;10640;50.140;8.138;2022-08-21T13:35:27;3.05;;;1.75;;
20962;SDS011;10640;50.140;8.138;2022-08-21T13:37:56;4.28;;;1.65;;
20962;SDS011;10640;50.140;8.138;2022-08-21T13:40:25;3.15;;;1.60;;
20962;SDS011;10640;50.140;8.138;2022-08-21T13:42:55;2.33;;;1.48;;
20962;SDS011;10640;50.140;8.138;2022-08-21T13:45:23;1.52;;;1.42;;
20962;SDS011;10640;50.140;8.138;2022-08-21T13:47:52;3.03;;;1.58;;
20962;SDS011;10640;50.140;8.138;2022-08-21T13:50:22;1.88;;;1.52;;
20962;SDS011;10640;50.140;8.138;2022-08-21T13:52:55;1.67;;;1.50;;
20962;SDS011;10640;50.140;8.138;2022-08-21T13:55:25;1.83;;;1.58;;
20962;SDS011;10640;50.140;8.138;2022-08-21T13:58:02;5.85;;;1.95;;
20962;SDS011;10640;50.140;8.138;2022-08-21T14:00:32;2.20;;;1.30;;
20962;SDS011;10640;50.140;8.138;2022-08-21T14:03:03;2.28;;;1.70;;
20962;SDS011;10640;50.140;8.138;2022-08-21T14:05:34;4.88;;;1.95;;
20962;SDS011;10640;50.140;8.138;2022-08-21T14:08:08;2.97;;;1.50;;
20962;SDS011;10640;50.140;8.138;2022-08-21T14:10:41;1.45;;;1.30;;
20962;SDS011;10640;50.140;8.138;2022-08-21T14:13:22;1.63;;;1.30;;
20962;SDS011;10640;50.140;8.138;2022-08-21T14:15:57;4.10;;;2.20;;
20962;SDS011;10640;50.140;8.138;2022-08-21T14:18:25;2.00;;;1.38;;
20962;SDS011;10640;50.140;8.138;2022-08-21T14:20:57;2.80;;;1.40;;
20962;SDS011;10640;50.140;8.138;2022-08-21T14:23:31;3.07;;;1.57;;
20962;SDS011;10640;50.140;8.138;2022-08-21T14:25:58;2.63;;;1.40;;
20962;SDS011;10640;50.140;8.138;2022-08-21T14:28:27;3.93;;;1.60;;
20962;SDS011;10640;50.140;8.138;2022-08-21T14:30:56;3.03;;;1.57;;
20962;SDS011;10640;50.140;8.138;2022-08-21T14:33:25;6.77;;;1.77;;
20962;SDS011;10640;50.140;8.138;2022-08-21T14:36:00;2.30;;;1.60;;
20962;SDS011;10640;50.140;8.138;2022-08-21T14:38:27;3.53;;;1.83;;
20962;SDS011;10640;50.140;8.138;2022-08-21T14:40:55;3.37;;;1.80;;
20962;SDS011;10640;50.140;8.138;2022-08-21T14:43:26;2.10;;;1.37;;
20962;SDS011;10640;50.140;8.138;2022-08-21T14:45:53;4.47;;;1.70;;
20962;SDS011;10640;50.140;8.138;2022-08-21T14:48:21;2.63;;;1.23;;
20962;SDS011;10640;50.140;8.138;2022-08-21T14:50:48;1.40;;;1.27;;
20962;SDS011;10640;50.140;8.138;2022-08-21T14:53:16;1.53;;;1.43;;
20962;SDS011;10640;50.140;8.138;2022-08-21T14:55:43;2.90;;;1.50;;
20962;SDS011;10640;50.140;8.138;2022-08-21T14:58:26;3.37;;;1.77;;
20962;SDS011;10640;50.140;8.138;2022-08-21T15:00:53;2.60;;;1.10;;
20962;SDS011;10640;50.140;8.138;2022-08-21T15:03:22;2.13;;;1.50;;
20962;SDS011;10640;50.140;8.138;2022-08-21T15:05:50;2.80;;;1.83;;
20962;SDS011;10640;50.140;8.138;2022-08-21T15:08:18;5.60;;;1.80;;
20962;SDS011;10640;50.140;8.138;2022-08-21T15:10:46;4.90;;;1.47;;
20962;SDS011;10640;50.140;8.138;2022-08-21T15:13:13;1.90;;;1.40;;
20962;SDS011;10640;50.140;8.138;2022-08-21T15:15:42;3.97;;;1.83;;
20962;SDS011;10640;50.140;8.138;2022-08-21T15:18:10;4.90;;;1.60;;
20962;SDS011;10640;50.140;8.138;2022-08-21T15:20:37;2.53;;;1.57;;
20962;SDS011;10640;50.140;8.138;2022-08-21T15:23:05;2.90;;;1.40;;
20962;SDS011;10640;50.140;8.138;2022-08-21T15:25:34;1.87;;;1.20;;
20962;SDS011;10640;50.140;8.138;2022-08-21T15:28:02;3.47;;;1.57;;
20962;SDS011;10640;50.140;8.138;2022-08-21T15:30:29;3.37;;;1.67;;
20962;SDS011;10640;50.140;8.138;2022-08-21T15:32:57;2.70;;;1.30;;
20962;SDS011;10640;50.140;8.138;2022-08-21T15:35:24;2.60;;;1.10;;
20962;SDS011;10640;50.140;8.138;2022-08-21T15:37:51;5.33;;;1.60;;
20962;SDS011;10640;50.140;8.138;2022-08-21T15:40:21;2.50;;;1.40;;
20962;SDS011;10640;50.140;8.138;2022-08-21T15:42:50;1.83;;;1.57;;
20962;SDS011;10640;50.140;8.138;2022-08-21T15:45:22;2.97;;;1.67;;
20962;SDS011;10640;50.140;8.138;2022-08-21T15:47:49;2.73;;;1.60;;
20962;SDS011;10640;50.140;8.138;2022-08-21T15:50:16;1.67;;;1.43;;
20962;SDS011;10640;50.140;8.138;2022-08-21T15:52:44;1.63;;;1.37;;
20962;SDS011;10640;50.140;8.138;2022-08-21T15:55:11;3.27;;;1.30;;
20962;SDS011;10640;50.140;8.138;2022-08-21T15:57:42;2.70;;;1.60;;
20962;SDS011;10640;50.140;8.138;2022-08-21T16:00:12;3.47;;;1.40;;
20962;SDS011;10640;50.140;8.138;2022-08-21T16:02:42;5.17;;;1.50;;
20962;SDS011;10640;50.140;8.138;2022-08-21T16:05:11;6.70;;;5.17;;
20962;SDS011;10640;50.140;8.138;2022-08-21T16:07:41;4.13;;;1.70;;
20962;SDS011;10640;50.140;8.138;2022-08-21T16:10:09;2.50;;;1.30;;
20962;SDS011;10640;50.140;8.138;2022-08-21T16:12:38;3.57;;;1.30;;
20962;SDS011;10640;50.140;8.138;2022-08-21T16:15:10;2.37;;;1.10;;
20962;SDS011;10640;50.140;8.138;2022-08-21T16:17:40;1.17;;;1.17;;
20962;SDS011;10640;50.140;8.138;2022-08-21T16:20:12;1.67;;;1.10;;
20962;SDS011;10640;50.140;8.138;2022-08-21T16:22:42;3.00;;;2.03;;
20962;SDS011;10640;50.140;8.138;2022-08-21T16:25:09;1.70;;;1.30;;
20962;SDS011;10640;50.140;8.138;2022-08-21T16:27:36;2.93;;;1.87;;
20962;SDS011;10640;50.140;8.138;2022-08-21T16:30:03;2.10;;;1.30;;
20962;SDS011;10640;50.140;8.138;2022-08-21T16:32:33;4.53;;;1.40;;
20962;SDS011;10640;50.140;8.138;2022-08-21T16:35:00;2.67;;;1.20;;
20962;SDS011;10640;50.140;8.138;2022-08-21T16:37:28;3.07;;;1.30;;
20962;SDS011;10640;50.140;8.138;2022-08-21T16:39:56;2.50;;;1.40;;
20962;SDS011;10640;50.140;8.138;2022-08-21T16:42:24;2.33;;;1.20;;
20962;SDS011;10640;50.140;8.138;2022-08-21T16:44:52;2.43;;;1.23;;
20962;SDS011;10640;50.140;8.138;2022-08-21T16:47:21;1.90;;;1.50;;
20962;SDS011;10640;50.140;8.138;2022-08-21T16:49:49;2.33;;;1.20;;
20962;SDS011;10640;50.140;8.138;2022-08-21T16:52:17;1.23;;;1.17;;
20962;SDS011;10640;50.140;8.138;2022-08-21T16:54:44;2.80;;;1.43;;
20962;SDS011;10640;50.140;8.138;2022-08-21T16:57:11;1.57;;;1.27;;
20962;SDS011;10640;50.140;8.138;2022-08-21T16:59:38;1.80;;;1.60;;
20962;SDS011;10640;50.140;8.138;2022-08-21T17:02:07;2.77;;;1.43;;
20962;SDS011;10640;50.140;8.138;2022-08-21T17:04:43;2.27;;;1.37;;
20962;SDS011;10640;50.140;8.138;2022-08-21T17:07:11;1.53;;;1.43;;
20962;SDS011;10640;50.140;8.138;2022-08-21T17:09:38;3.43;;;1.30;;
20962;SDS011;10640;50.140;8.138;2022-08-21T17:12:05;4.27;;;1.80;;
20962;SDS011;10640;50.140;8.138;2022-08-21T17:14:33;3.90;;;1.33;;
20962;SDS011;10640;50.140;8.138;2022-08-21T17:17:01;3.20;;;1.60;;
20962;SDS011;10640;50.140;8.138;2022-08-21T17:19:30;2.13;;;1.40;;
20962;SDS011;10640;50.140;8.138;2022-08-21T17:21:58;2.30;;;1.37;;
20962;SDS011;10640;50.140;8.138;2022-08-21T17:24:26;2.40;;;1.10;;
20962;SDS011;10640;50.140;8.138;2022-08-21T17:26:53;2.03;;;1.50;;
20962;SDS011;10640;50.140;8.138;2022-08-21T17:29:23;2.27;;;1.43;;
20962;SDS011;10640;50.140;8.138;2022-08-21T17:31:52;4.43;;;1.50;;
20962;SDS011;10640;50.140;8.138;2022-08-21T17:34:19;2.63;;;1.37;;
20962;SDS011;10640;50.140;8.138;2022-08-21T17:36:46;1.50;;;1.30;;
20962;SDS011;10640;50.140;8.138;2022-08-21T17:39:13;3.80;;;1.70;;
20962;SDS011;10640;50.140;8.138;2022-08-21T17:41:42;2.10;;;1.30;;
20962;SDS011;10640;50.140;8.138;2022-08-21T17:44:10;4.17;;;1.97;;
20962;SDS011;10640;50.140;8.138;2022-08-21T17:46:37;1.87;;;1.37;;
20962;SDS011;10640;50.140;8.138;2022-08-21T17:49:07;2.63;;;1.53;;
20962;SDS011;10640;50.140;8.138;2022-08-21T17:51:35;1.90;;;1.70;;
20962;SDS011;10640;50.140;8.138;2022-08-21T17:54:02;2.03;;;1.50;;
20962;SDS011;10640;50.140;8.138;2022-08-21T17:56:30;3.10;;;1.90;;
20962;SDS011;10640;50.140;8.138;2022-08-21T17:59:01;1.83;;;1.30;;
20962;SDS011;10640;50.140;8.138;2022-08-21T18:01:31;2.00;;;1.80;;
20962;SDS011;10640;50.140;8.138;2022-08-21T18:04:00;3.23;;;1.57;;
20962;SDS011;10640;50.140;8.138;2022-08-21T18:06:27;4.50;;;3.07;;
20962;SDS011;10640;50.140;8.138;2022-08-21T18:08:55;2.87;;;1.70;;
20962;SDS011;10640;50.140;8.138;2022-08-21T18:11:24;4.80;;;1.70;;
20962;SDS011;10640;50.140;8.138;2022-08-21T18:13:53;3.70;;;1.80;;
20962;SDS011;10640;50.140;8.138;2022-08-21T18:16:26;2.07;;;1.33;;
20962;SDS011;10640;50.140;8.138;2022-08-21T18:18:53;2.20;;;1.50;;
20962;SDS011;10640;50.140;8.138;2022-08-21T18:21:21;3.50;;;1.60;;
20962;SDS011;10640;50.140;8.138;2022-08-21T18:23:49;1.50;;;1.40;;
20962;SDS011;10640;50.140;8.138;2022-08-21T18:26:18;4.40;;;1.63;;
20962;SDS011;10640;50.140;8.138;2022-08-21T18:28:50;4.07;;;1.57;;
20962;SDS011;10640;50.140;8.138;2022-08-21T18:31:17;4.80;;;1.53;;